Time;durP1;ratioP1;P1;durP2;ratioP2;P2;SDS_P1;SDS_P2;PMS_P1;PMS_P2;Temp;Humidity;BMP_temperature;BMP_pressure;BME280_temperature;BME280_humidity;BME280_pressure;Samples;Min_cycle;Max_cycle;Signal;HPM_P1;HPM_P2
2021/01/30 00:02:22;;;;;;;14.10;8.43;;;0.60;99.90;;;;;;5021030;28;20271;-80
2021/01/30 00:04:49;;;;;;;14.37;8.07;;;0.60;99.90;;;;;;5019374;28;20300;-80
2021/01/30 00:07:16;;;;;;;14.07;8.07;;;0.60;99.90;;;;;;5015969;28;20641;-79
2021/01/30 00:09:42;;;;;;;13.60;7.93;;;0.50;99.90;;;;;;5015963;28;20348;-79
2021/01/30 00:12:10;;;;;;;12.90;8.10;;;0.50;99.90;;;;;;5017745;28;20366;-80
2021/01/30 00:14:39;;;;;;;13.60;8.33;;;0.60;99.90;;;;;;5014465;28;20201;-80
2021/01/30 00:17:07;;;;;;;14.63;9.23;;;0.50;99.90;;;;;;5015870;28;20267;-80
2021/01/30 00:19:35;;;;;;;14.23;8.37;;;0.60;99.90;;;;;;5018884;28;20271;-79
2021/01/30 00:22:04;;;;;;;14.40;8.47;;;0.60;99.90;;;;;;5020744;28;20212;-79
2021/01/30 00:24:31;;;;;;;12.67;8.00;;;0.60;99.90;;;;;;5020016;28;20205;-79
2021/01/30 00:27:00;;;;;;;15.67;9.20;;;0.60;99.90;;;;;;5016776;28;20228;-79
2021/01/30 00:29:28;;;;;;;12.37;7.63;;;0.60;99.90;;;;;;5018249;28;20225;-80
2021/01/30 00:31:56;;;;;;;14.43;7.90;;;0.60;99.90;;;;;;5022483;28;20260;-80
2021/01/30 00:34:24;;;;;;;13.67;7.83;;;0.50;99.90;;;;;;5018214;28;20233;-80
2021/01/30 00:36:51;;;;;;;13.47;7.80;;;0.50;99.90;;;;;;5015812;28;20288;-79
2021/01/30 00:39:17;;;;;;;13.70;7.53;;;0.50;99.90;;;;;;5021021;28;20568;-80
2021/01/30 00:41:44;;;;;;;14.23;7.83;;;0.40;99.90;;;;;;5015388;28;20219;-79
2021/01/30 00:44:10;;;;;;;12.73;6.93;;;0.50;99.90;;;;;;5015208;28;20197;-79
2021/01/30 00:46:37;;;;;;;12.20;6.97;;;0.40;99.90;;;;;;5020204;28;20230;-80
2021/01/30 00:49:04;;;;;;;12.47;7.23;;;0.30;99.90;;;;;;5014652;28;20286;-80
2021/01/30 00:51:30;;;;;;;13.07;7.03;;;0.40;99.90;;;;;;5017194;28;20294;-79
2021/01/30 00:53:57;;;;;;;12.80;7.17;;;0.40;99.90;;;;;;5018204;28;20228;-79
2021/01/30 00:56:23;;;;;;;11.13;7.00;;;0.30;99.90;;;;;;5011435;28;20660;-80
2021/01/30 00:58:50;;;;;;;12.67;6.93;;;0.30;99.90;;;;;;5018494;28;20669;-80
2021/01/30 01:01:17;;;;;;;12.27;7.43;;;0.30;99.90;;;;;;5020316;28;20669;-79
2021/01/30 01:03:43;;;;;;;11.43;6.60;;;0.40;99.90;;;;;;5017110;28;20204;-80
2021/01/30 01:06:11;;;;;;;12.47;6.77;;;0.40;99.90;;;;;;5014475;28;20281;-80
2021/01/30 01:08:37;;;;;;;11.10;6.23;;;0.40;99.90;;;;;;5018718;28;20204;-80
2021/01/30 01:11:04;;;;;;;12.10;6.57;;;0.30;99.90;;;;;;5018218;28;20257;-80
2021/01/30 01:13:30;;;;;;;11.83;6.57;;;0.30;99.90;;;;;;5016250;28;20488;-79
2021/01/30 01:15:57;;;;;;;10.20;5.83;;;0.30;99.90;;;;;;5014677;28;20280;-78
2021/01/30 01:18:23;;;;;;;10.03;6.00;;;0.40;99.90;;;;;;5018936;28;20215;-78
2021/01/30 01:20:50;;;;;;;11.30;6.10;;;0.30;99.90;;;;;;5021231;28;20226;-78
2021/01/30 01:23:18;;;;;;;9.63;5.57;;;0.30;99.90;;;;;;5019512;28;20208;-77
2021/01/30 01:25:44;;;;;;;10.07;5.80;;;0.30;99.90;;;;;;5016158;28;20247;-78
2021/01/30 01:28:11;;;;;;;12.17;5.50;;;0.30;99.90;;;;;;5016139;28;20272;-78
2021/01/30 01:30:37;;;;;;;11.67;6.43;;;0.30;99.90;;;;;;5017364;28;20259;-78
2021/01/30 01:33:04;;;;;;;10.20;5.67;;;0.30;99.90;;;;;;5011443;28;20287;-79
2021/01/30 01:35:32;;;;;;;11.47;5.60;;;0.30;99.90;;;;;;5014443;28;20251;-78
2021/01/30 01:38:00;;;;;;;11.90;5.93;;;0.20;99.90;;;;;;5021143;28;20239;-78
2021/01/30 01:40:30;;;;;;;12.17;6.33;;;0.30;99.90;;;;;;5013121;28;20288;-78
2021/01/30 01:43:02;;;;;;;9.23;4.93;;;0.30;99.90;;;;;;5020046;28;20204;-79
2021/01/30 01:45:29;;;;;;;10.17;5.77;;;0.20;99.90;;;;;;5019567;28;20236;-78
2021/01/30 01:47:56;;;;;;;10.83;5.80;;;0.30;99.90;;;;;;5017878;28;20294;-78
2021/01/30 01:50:34;;;;;;;10.77;5.43;;;0.20;99.90;;;;;;5021089;28;20738;-79
2021/01/30 01:53:07;;;;;;;8.23;4.77;;;0.20;99.90;;;;;;5016476;28;20281;-78
2021/01/30 01:55:35;;;;;;;10.80;5.90;;;0.10;99.90;;;;;;5016316;28;20224;-78
2021/01/30 01:58:03;;;;;;;11.33;5.23;;;0.20;99.90;;;;;;5016925;28;20220;-78
2021/01/30 02:00:30;;;;;;;10.70;5.80;;;0.20;99.90;;;;;;5020729;28;20320;-79
2021/01/30 02:02:57;;;;;;;8.47;5.40;;;0.30;99.90;;;;;;5017234;28;20201;-79
2021/01/30 02:05:27;;;;;;;10.63;5.77;;;0.30;99.90;;;;;;5009863;28;20285;-78
2021/01/30 02:07:57;;;;;;;10.23;5.80;;;0.30;99.90;;;;;;5017694;28;20224;-79
2021/01/30 02:10:26;;;;;;;7.93;5.23;;;0.30;99.90;;;;;;5022164;28;20235;-78
2021/01/30 02:12:58;;;;;;;9.60;5.60;;;0.20;99.90;;;;;;5014320;28;20267;-77
2021/01/30 02:15:25;;;;;;;9.97;5.30;;;0.20;99.90;;;;;;5020827;28;20248;-78
2021/01/30 02:18:03;;;;;;;9.03;5.73;;;0.30;99.90;;;;;;5023098;28;20637;-79
2021/01/30 02:21:01;;;;;;;9.83;5.90;;;0.20;99.90;;;;;;5012277;28;20296;-78
2021/01/30 02:24:10;;;;;;;8.47;5.23;;;0.20;99.90;;;;;;5021215;28;20272;-78
2021/01/30 02:27:15;;;;;;;9.77;5.70;;;0.10;99.90;;;;;;5020783;28;20287;-78
2021/01/30 02:30:20;;;;;;;10.83;5.90;;;0.20;99.90;;;;;;5021533;28;20220;-78
2021/01/30 02:33:20;;;;;;;11.07;5.77;;;0.20;99.90;;;;;;5020857;28;20231;-78
2021/01/30 02:36:16;;;;;;;9.27;5.77;;;0.30;99.90;;;;;;5021138;28;20283;-78
2021/01/30 02:38:47;;;;;;;10.50;5.50;;;0.20;99.90;;;;;;5023153;28;20327;-78
2021/01/30 02:41:18;;;;;;;11.63;5.67;;;0.20;99.90;;;;;;5021748;28;20263;-78
2021/01/30 02:43:48;;;;;;;9.60;5.20;;;0.30;99.90;;;;;;5024605;28;20250;-78
2021/01/30 02:46:19;;;;;;;8.50;5.03;;;0.20;99.90;;;;;;5023217;28;20293;-79
2021/01/30 02:48:48;;;;;;;8.40;5.03;;;0.20;99.90;;;;;;5021357;28;20196;-79
2021/01/30 02:51:21;;;;;;;8.30;5.00;;;0.20;99.90;;;;;;5018509;28;20678;-78
2021/01/30 02:53:52;;;;;;;8.63;4.83;;;0.20;99.90;;;;;;5023612;28;20231;-78
2021/01/30 02:56:21;;;;;;;8.33;4.90;;;0.20;99.90;;;;;;5024551;28;20224;-78
2021/01/30 02:58:53;;;;;;;7.03;4.37;;;0.20;99.90;;;;;;5019708;28;20292;-78
2021/01/30 03:01:19;;;;;;;7.00;4.53;;;0.20;99.90;;;;;;5022487;28;20311;-77
2021/01/30 03:03:47;;;;;;;8.33;4.93;;;0.20;99.90;;;;;;5020611;28;20223;-78
2021/01/30 03:06:20;;;;;;;10.07;5.17;;;0.30;99.90;;;;;;5024860;28;20331;-78
2021/01/30 03:08:54;;;;;;;8.50;5.17;;;0.20;99.90;;;;;;5016231;28;20209;-78
2021/01/30 03:11:26;;;;;;;8.93;5.10;;;0.30;99.90;;;;;;5022183;28;20291;-78
2021/01/30 03:13:57;;;;;;;7.50;4.57;;;0.20;99.90;;;;;;5018240;28;20799;-77
2021/01/30 03:16:27;;;;;;;8.60;5.37;;;0.30;99.90;;;;;;5026514;28;20240;-78
2021/01/30 03:18:56;;;;;;;7.90;5.00;;;0.30;99.90;;;;;;5025747;28;20307;-77
2021/01/30 03:21:24;;;;;;;9.40;4.73;;;0.30;99.90;;;;;;5026186;28;20242;-78
2021/01/30 03:23:51;;;;;;;8.97;5.20;;;0.20;99.90;;;;;;5025541;28;20220;-78
2021/01/30 03:26:20;;;;;;;8.47;5.00;;;0.30;99.90;;;;;;5017236;28;20283;-78
2021/01/30 03:28:48;;;;;;;9.73;5.33;;;0.20;99.90;;;;;;5027909;28;20219;-77
2021/01/30 03:31:14;;;;;;;8.47;5.37;;;0.30;99.90;;;;;;5027685;28;20204;-78
2021/01/30 03:33:41;;;;;;;10.40;5.40;;;0.20;99.90;;;;;;5020964;28;20619;-79
2021/01/30 03:36:08;;;;;;;10.07;5.40;;;0.20;99.90;;;;;;5024105;28;20283;-78
2021/01/30 03:38:36;;;;;;;9.73;5.37;;;0.20;99.90;;;;;;5032333;28;20260;-78
2021/01/30 03:41:03;;;;;;;10.77;5.97;;;0.20;99.90;;;;;;5025629;28;20208;-78
2021/01/30 03:43:29;;;;;;;10.57;5.90;;;0.20;99.90;;;;;;5030225;28;20266;-78
2021/01/30 03:45:56;;;;;;;9.83;5.83;;;0.20;99.90;;;;;;5033827;28;20223;-78
2021/01/30 03:48:22;;;;;;;9.50;5.50;;;0.20;99.90;;;;;;5024618;28;20295;-78
2021/01/30 03:50:48;;;;;;;11.43;5.50;;;0.20;99.90;;;;;;5021213;28;20284;-78
2021/01/30 03:53:15;;;;;;;10.33;5.57;;;0.20;99.90;;;;;;5027334;28;20216;-78
2021/01/30 03:55:43;;;;;;;8.70;5.00;;;0.20;99.90;;;;;;5024035;28;20304;-79
2021/01/30 03:58:09;;;;;;;11.70;6.40;;;0.10;99.90;;;;;;5022056;28;20192;-78
2021/01/30 04:00:36;;;;;;;8.90;5.33;;;0.20;99.90;;;;;;5024225;28;20755;-78
2021/01/30 04:03:02;;;;;;;10.70;5.90;;;0.20;99.90;;;;;;5024960;28;20319;-78
2021/01/30 04:05:29;;;;;;;12.07;5.83;;;0.10;99.90;;;;;;5025057;28;20252;-78
2021/01/30 04:07:58;;;;;;;9.10;5.50;;;0.20;99.90;;;;;;5036756;28;20724;-77
2021/01/30 04:10:27;;;;;;;10.77;5.50;;;0.10;99.90;;;;;;5018791;28;20244;-78
2021/01/30 04:12:55;;;;;;;10.47;5.90;;;0.20;99.90;;;;;;5019425;28;20193;-78
2021/01/30 04:15:24;;;;;;;12.43;6.63;;;0.10;99.90;;;;;;5024735;28;20248;-79
2021/01/30 04:17:50;;;;;;;11.73;6.47;;;0.10;99.90;;;;;;5024268;28;20235;-79
2021/01/30 04:20:17;;;;;;;11.87;6.20;;;0.10;99.90;;;;;;5023431;28;20227;-78
2021/01/30 04:22:44;;;;;;;11.53;6.77;;;0.10;99.90;;;;;;5028736;28;20570;-78
2021/01/30 04:25:13;;;;;;;12.77;6.90;;;0.10;99.90;;;;;;5025188;28;20288;-79
2021/01/30 04:27:39;;;;;;;12.40;6.87;;;0.10;99.90;;;;;;5023444;28;20406;-79
2021/01/30 04:30:08;;;;;;;14.83;7.10;;;0.10;99.90;;;;;;5025479;28;20219;-78
2021/01/30 04:32:34;;;;;;;12.13;6.43;;;0.10;99.90;;;;;;5030292;28;20223;-79
2021/01/30 04:35:01;;;;;;;18.93;8.00;;;0.10;99.90;;;;;;5023873;28;20283;-79
2021/01/30 04:37:27;;;;;;;13.07;6.97;;;0.10;99.90;;;;;;5024042;28;20277;-78
2021/01/30 04:39:53;;;;;;;14.00;7.00;;;0.20;99.90;;;;;;5023815;28;20291;-79
2021/01/30 04:42:26;;;;;;;12.27;6.87;;;0.10;99.90;;;;;;5027967;28;20291;-79
2021/01/30 04:45:02;;;;;;;14.13;7.73;;;0.10;99.90;;;;;;5023513;28;20622;-78
2021/01/30 04:47:43;;;;;;;14.63;8.10;;;0.20;99.90;;;;;;5022705;28;20743;-78
2021/01/30 04:50:18;;;;;;;14.03;7.93;;;0.20;99.90;;;;;;5020030;28;20291;-78
2021/01/30 04:52:51;;;;;;;16.20;8.30;;;0.20;99.90;;;;;;5021647;28;20208;-79
2021/01/30 04:55:46;;;;;;;17.37;8.43;;;0.20;99.90;;;;;;5022643;28;20291;-78
2021/01/30 04:58:17;;;;;;;14.93;7.80;;;0.20;99.90;;;;;;5001804;28;20208;-78
2021/01/30 05:01:00;;;;;;;13.67;7.23;;;0.20;99.90;;;;;;5017698;28;20247;-78
2021/01/30 05:04:00;;;;;;;15.97;8.00;;;0.10;99.90;;;;;;5016108;28;20235;-79
2021/01/30 05:06:38;;;;;;;15.90;8.03;;;0.10;99.90;;;;;;5020625;28;20288;-79
2021/01/30 05:09:12;;;;;;;17.07;8.17;;;0.20;99.90;;;;;;5022416;28;20200;-78
2021/01/30 05:11:39;;;;;;;14.83;7.50;;;0.30;99.90;;;;;;5022182;28;20252;-79
2021/01/30 05:14:11;;;;;;;14.03;7.80;;;0.20;99.90;;;;;;5020357;28;20292;-78
2021/01/30 05:16:41;;;;;;;18.90;8.93;;;0.30;99.90;;;;;;5020214;28;20250;-78
2021/01/30 05:19:12;;;;;;;13.53;7.57;;;0.20;99.90;;;;;;5017178;28;20231;-79
2021/01/30 05:21:44;;;;;;;14.70;7.33;;;0.20;99.90;;;;;;5022921;28;20197;-79
2021/01/30 05:24:11;;;;;;;17.33;8.33;;;0.20;99.90;;;;;;5016794;28;20227;-78
2021/01/30 05:26:50;;;;;;;15.93;7.40;;;0.10;99.90;;;;;;5010839;28;20641;-79
2021/01/30 05:29:21;;;;;;;14.23;7.13;;;0.30;99.90;;;;;;5014242;28;20668;-77
2021/01/30 05:31:54;;;;;;;15.63;8.43;;;0.20;99.90;;;;;;5012643;28;20208;-77
2021/01/30 05:34:26;;;;;;;18.27;8.10;;;0.20;99.90;;;;;;5011886;28;20208;-77
2021/01/30 05:36:58;;;;;;;15.80;8.07;;;0.20;99.90;;;;;;5007308;28;20211;-78
2021/01/30 05:39:48;;;;;;;15.90;8.33;;;0.30;99.90;;;;;;5013162;28;20223;-77
2021/01/30 05:42:24;;;;;;;16.43;8.10;;;0.20;99.90;;;;;;5011099;28;20268;-77
2021/01/30 05:44:58;;;;;;;14.93;7.90;;;0.20;99.90;;;;;;5015113;28;20227;-78
2021/01/30 05:47:28;;;;;;;13.53;7.30;;;0.20;99.90;;;;;;5014850;28;20200;-78
2021/01/30 05:50:08;;;;;;;16.07;8.03;;;0.20;99.90;;;;;;5014006;28;20583;-77
2021/01/30 05:52:37;;;;;;;13.30;7.60;;;0.20;99.90;;;;;;5015348;28;20214;-78
2021/01/30 05:55:04;;;;;;;17.23;8.20;;;0.30;99.90;;;;;;5014127;28;20539;-78
2021/01/30 05:57:30;;;;;;;14.27;7.50;;;0.30;99.90;;;;;;5008728;28;20205;-76
2021/01/30 06:00:00;;;;;;;15.80;7.87;;;0.40;99.90;;;;;;5017261;28;20221;-77
2021/01/30 06:02:28;;;;;;;16.57;8.63;;;0.30;99.90;;;;;;5016277;28;20200;-77
2021/01/30 06:04:55;;;;;;;16.67;8.63;;;0.30;99.90;;;;;;5016901;28;20285;-77
2021/01/30 06:07:30;;;;;;;17.70;8.97;;;0.40;99.90;;;;;;5015492;28;20211;-77
2021/01/30 06:09:57;;;;;;;18.13;9.00;;;0.40;99.90;;;;;;5011731;28;20330;-77
2021/01/30 06:12:28;;;;;;;16.10;8.17;;;0.40;99.90;;;;;;5018484;28;20299;-77
2021/01/30 06:14:56;;;;;;;16.87;8.70;;;0.50;99.90;;;;;;5017441;28;20285;-77
2021/01/30 06:17:32;;;;;;;14.03;7.83;;;0.50;99.90;;;;;;5013762;28;20739;-77
2021/01/30 06:20:10;;;;;;;15.53;8.50;;;0.50;99.90;;;;;;5013637;28;20287;-77
2021/01/30 06:22:37;;;;;;;15.27;8.27;;;0.40;99.90;;;;;;5013680;28;20208;-77
2021/01/30 06:25:24;;;;;;;16.10;8.27;;;0.50;99.90;;;;;;5016390;28;20224;-77
2021/01/30 06:27:54;;;;;;;17.57;8.77;;;0.50;99.90;;;;;;5014252;28;20549;-77
2021/01/30 06:30:32;;;;;;;16.53;9.00;;;0.50;99.90;;;;;;5015819;28;20253;-77
2021/01/30 06:33:01;;;;;;;16.97;9.20;;;0.50;99.90;;;;;;5015091;28;20287;-77
2021/01/30 06:35:34;;;;;;;15.67;8.53;;;0.40;99.90;;;;;;5012284;28;20279;-77
2021/01/30 06:38:12;;;;;;;16.50;8.13;;;0.50;99.90;;;;;;5017095;28;20215;-77
2021/01/30 06:40:52;;;;;;;17.97;9.13;;;0.50;99.90;;;;;;5021630;28;20223;-77
2021/01/30 06:43:28;;;;;;;17.67;9.07;;;0.50;99.90;;;;;;5016740;28;20212;-80
2021/01/30 06:46:05;;;;;;;16.27;9.40;;;0.50;99.90;;;;;;5013396;28;20219;-77
2021/01/30 06:48:39;;;;;;;18.43;9.17;;;0.50;99.90;;;;;;5016179;28;20204;-77
2021/01/30 06:51:21;;;;;;;16.87;8.77;;;0.50;99.90;;;;;;5015008;28;20204;-77
2021/01/30 06:53:48;;;;;;;19.70;10.33;;;0.50;99.90;;;;;;5024245;28;20204;-78
2021/01/30 06:56:18;;;;;;;22.17;11.10;;;0.40;99.90;;;;;;5023708;28;20248;-79
2021/01/30 06:58:45;;;;;;;17.50;9.30;;;0.60;99.90;;;;;;5024734;28;20232;-77
2021/01/30 07:01:15;;;;;;;18.17;9.40;;;0.50;99.90;;;;;;5021100;28;20315;-76
2021/01/30 07:03:56;;;;;;;17.37;9.10;;;0.40;99.90;;;;;;5024996;28;20204;-77
2021/01/30 07:06:28;;;;;;;18.80;9.43;;;0.40;99.90;;;;;;5022713;28;20250;-78
2021/01/30 07:09:15;;;;;;;18.97;9.63;;;0.40;99.90;;;;;;5024602;28;20209;-80
2021/01/30 07:11:54;;;;;;;17.90;9.23;;;0.40;99.90;;;;;;5024918;28;20208;-77
2021/01/30 07:14:49;;;;;;;17.63;9.47;;;0.50;99.90;;;;;;5024511;28;20312;-77
2021/01/30 07:17:28;;;;;;;17.13;9.23;;;0.50;99.90;;;;;;5011921;28;20228;-78
2021/01/30 07:20:02;;;;;;;19.40;9.83;;;0.60;99.90;;;;;;5022701;28;20223;-76
2021/01/30 07:22:36;;;;;;;16.70;9.37;;;0.60;99.90;;;;;;5018864;28;20272;-78
2021/01/30 07:25:13;;;;;;;19.87;11.43;;;0.60;99.90;;;;;;5017715;28;20237;-78
2021/01/30 07:27:46;;;;;;;19.10;10.67;;;0.50;99.90;;;;;;5025264;28;20227;-79
2021/01/30 07:30:16;;;;;;;23.13;12.20;;;0.50;99.90;;;;;;5023208;28;20192;-79
2021/01/30 07:32:50;;;;;;;24.43;13.30;;;0.50;99.90;;;;;;5014066;28;20503;-79
2021/01/30 07:35:22;;;;;;;19.70;11.37;;;0.50;99.90;;;;;;5012235;28;20270;-77
2021/01/30 07:37:55;;;;;;;20.13;10.80;;;0.60;99.90;;;;;;5015014;28;20664;-77
2021/01/30 07:40:32;;;;;;;19.90;11.13;;;0.50;99.90;;;;;;5021476;28;20751;-78
2021/01/30 07:43:05;;;;;;;22.00;11.87;;;0.50;99.90;;;;;;5028696;28;20733;-77
2021/01/30 07:45:35;;;;;;;20.10;11.00;;;0.60;99.90;;;;;;5010788;28;20229;-80
2021/01/30 07:48:11;;;;;;;19.83;10.50;;;0.70;99.90;;;;;;5017778;28;20205;-78
2021/01/30 07:50:55;;;;;;;25.03;11.40;;;0.70;99.90;;;;;;5024003;28;20227;-78
2021/01/30 07:53:24;;;;;;;22.83;11.10;;;0.80;99.90;;;;;;5020425;28;20216;-79
2021/01/30 07:56:12;;;;;;;22.87;10.67;;;0.80;99.90;;;;;;5020580;28;20307;-77
2021/01/30 07:58:50;;;;;;;23.53;11.63;;;0.90;99.90;;;;;;5027978;28;20214;-77
2021/01/30 08:01:38;;;;;;;24.03;10.13;;;0.90;99.90;;;;;;5025175;28;20200;-77
2021/01/30 08:04:33;;;;;;;20.20;10.50;;;0.90;99.90;;;;;;5032139;28;20279;-78
2021/01/30 08:07:11;;;;;;;21.87;11.47;;;0.90;99.90;;;;;;5026433;28;20196;-77
2021/01/30 08:09:48;;;;;;;21.57;11.90;;;1.00;99.90;;;;;;5016134;28;20676;-78
2021/01/30 08:12:21;;;;;;;22.63;12.07;;;1.00;99.90;;;;;;5023976;28;20271;-78
2021/01/30 08:14:57;;;;;;;22.73;11.80;;;1.00;99.90;;;;;;5012553;28;20220;-76
2021/01/30 08:17:42;;;;;;;20.60;11.67;;;1.10;99.90;;;;;;5022662;28;20239;-78
2021/01/30 08:20:16;;;;;;;22.10;12.10;;;1.00;99.90;;;;;;5018805;28;20292;-78
2021/01/30 08:22:51;;;;;;;22.07;12.20;;;1.10;99.90;;;;;;5023727;28;20322;-79
2021/01/30 08:25:22;;;;;;;22.80;12.73;;;1.10;99.90;;;;;;5013317;28;20304;-77
2021/01/30 08:27:58;;;;;;;21.97;12.07;;;1.10;99.90;;;;;;5026133;28;20201;-78
2021/01/30 08:30:25;;;;;;;23.70;12.33;;;1.20;99.90;;;;;;5025830;28;20286;-78
2021/01/30 08:32:59;;;;;;;21.23;11.53;;;1.20;99.90;;;;;;5024185;28;20200;-77
2021/01/30 08:35:47;;;;;;;22.90;12.30;;;1.20;99.90;;;;;;5016602;28;20227;-79
2021/01/30 08:38:33;;;;;;;23.70;11.67;;;1.20;99.90;;;;;;5033299;28;20239;-78
2021/01/30 08:41:10;;;;;;;21.97;11.90;;;1.20;99.90;;;;;;5020672;28;20240;-78
2021/01/30 08:43:42;;;;;;;23.43;11.60;;;1.10;99.90;;;;;;5021068;28;20220;-79
2021/01/30 08:46:24;;;;;;;20.30;10.10;;;1.20;99.90;;;;;;5021487;28;20694;-78
2021/01/30 08:49:12;;;;;;;23.50;11.73;;;1.30;99.90;;;;;;5018296;28;20296;-77
2021/01/30 08:51:38;;;;;;;23.67;11.43;;;1.20;99.90;;;;;;5014260;28;20254;-77
2021/01/30 08:54:26;;;;;;;19.03;9.67;;;1.20;99.90;;;;;;5007333;28;20201;-77
2021/01/30 08:56:52;;;;;;;22.10;11.53;;;1.20;99.90;;;;;;5008173;28;20735;-77
2021/01/30 08:59:46;;;;;;;24.20;12.07;;;1.10;99.90;;;;;;5011630;28;20243;-77
2021/01/30 09:02:54;;;;;;;23.40;10.93;;;1.20;99.90;;;;;;5008738;28;20244;-76
2021/01/30 09:05:42;;;;;;;20.57;9.60;;;1.20;99.90;;;;;;4978072;28;20246;-76
2021/01/30 09:08:38;;;;;;;21.83;10.43;;;1.20;99.90;;;;;;5009904;28;20236;-76
2021/01/30 09:11:37;;;;;;;21.20;10.23;;;1.20;99.90;;;;;;5010237;28;20633;-77
2021/01/30 09:14:09;;;;;;;21.87;11.03;;;1.20;99.90;;;;;;4950298;28;20618;-77
2021/01/30 09:16:45;;;;;;;18.53;9.37;;;1.20;99.90;;;;;;5000441;28;20585;-76
2021/01/30 09:19:21;;;;;;;17.33;8.17;;;1.20;99.90;;;;;;5010502;28;20648;-76
2021/01/30 09:22:09;;;;;;;17.57;8.70;;;1.10;99.90;;;;;;5016095;28;20287;-77
2021/01/30 09:25:06;;;;;;;18.03;8.73;;;1.10;99.90;;;;;;5016530;28;20230;-76
2021/01/30 09:27:46;;;;;;;20.03;9.57;;;1.20;99.90;;;;;;5023128;23;20232;-88
2021/01/30 09:30:33;;;;;;;20.50;9.80;;;1.20;99.90;;;;;;5015909;28;20200;-88
2021/01/30 09:33:08;;;;;;;18.80;7.93;;;1.10;99.90;;;;;;5019029;28;20587;-89
2021/01/30 09:35:37;;;;;;;18.63;8.40;;;1.10;99.90;;;;;;5016254;28;20712;-88
2021/01/30 09:38:23;;;;;;;21.20;9.33;;;1.00;99.90;;;;;;5016113;28;20214;-89
2021/01/30 09:40:50;;;;;;;21.80;10.63;;;1.20;99.90;;;;;;5016129;28;20212;-88
2021/01/30 09:43:21;;;;;;;22.50;11.13;;;1.40;99.90;;;;;;5004836;28;20208;-88
2021/01/30 09:45:52;;;;;;;22.13;10.80;;;1.30;99.90;;;;;;5015138;28;20223;-89
2021/01/30 09:48:19;;;;;;;24.03;11.53;;;1.30;99.90;;;;;;5013093;28;20586;-88
2021/01/30 09:50:50;;;;;;;21.97;11.20;;;1.40;99.90;;;;;;5015852;28;20258;-88
2021/01/30 09:53:24;;;;;;;23.73;11.93;;;1.50;99.90;;;;;;5015653;28;20210;-88
2021/01/30 09:56:05;;;;;;;21.77;11.10;;;1.50;99.90;;;;;;5014828;28;20203;-90
2021/01/30 09:58:34;;;;;;;21.73;11.10;;;1.60;99.90;;;;;;5012408;28;20215;-89
2021/01/30 10:01:05;;;;;;;22.10;11.13;;;1.50;99.90;;;;;;5014342;28;20708;-89
2021/01/30 10:03:38;;;;;;;21.33;10.90;;;1.50;99.90;;;;;;5008832;28;20254;-88
2021/01/30 10:06:16;;;;;;;22.80;11.27;;;1.50;99.90;;;;;;5015296;28;20242;-88
2021/01/30 10:08:43;;;;;;;21.67;11.20;;;1.50;99.90;;;;;;5013944;28;20212;-89
2021/01/30 10:11:12;;;;;;;22.03;11.67;;;1.50;99.90;;;;;;5014832;28;20338;-88
2021/01/30 10:13:41;;;;;;;22.20;10.17;;;1.50;99.90;;;;;;5015573;28;20575;-89
2021/01/30 10:16:16;;;;;;;22.43;11.30;;;1.50;99.90;;;;;;5010543;28;20209;-88
2021/01/30 10:18:48;;;;;;;19.10;9.93;;;1.60;99.90;;;;;;5008044;28;20296;-89
2021/01/30 10:21:27;;;;;;;21.87;12.07;;;1.50;99.90;;;;;;5011473;28;20213;-89
2021/01/30 10:23:56;;;;;;;20.67;10.57;;;1.50;99.90;;;;;;5007534;28;20236;-88
2021/01/30 10:26:25;;;;;;;20.70;11.50;;;1.50;99.90;;;;;;5012997;28;20583;-89
2021/01/30 10:28:55;;;;;;;19.77;10.33;;;1.70;99.90;;;;;;5005929;28;20200;-91
2021/01/30 10:31:33;;;;;;;18.73;9.23;;;1.70;99.90;;;;;;5008419;28;20193;-90
2021/01/30 10:34:04;;;;;;;22.63;9.53;;;1.70;99.90;;;;;;5019979;28;20818;-92
2021/01/30 10:36:37;;;;;;;18.67;9.20;;;1.70;99.90;;;;;;5013742;28;20289;-92
2021/01/30 10:39:05;;;;;;;19.73;9.97;;;1.80;99.90;;;;;;5017188;28;20283;-92
2021/01/30 10:41:33;;;;;;;19.67;10.33;;;1.80;99.90;;;;;;5033496;28;20215;-90
2021/01/30 10:44:03;;;;;;;19.60;10.27;;;1.80;99.90;;;;;;5020429;28;20307;-91
2021/01/30 10:46:40;;;;;;;21.63;10.50;;;1.70;99.90;;;;;;5013461;28;20212;-92
2021/01/30 10:49:13;;;;;;;21.73;10.93;;;1.90;99.90;;;;;;5013492;28;20234;-88
2021/01/30 10:51:41;;;;;;;19.03;9.83;;;1.80;99.90;;;;;;5011379;28;20677;-89
2021/01/30 10:54:22;;;;;;;19.33;9.63;;;1.70;99.90;;;;;;5009346;28;20252;-90
2021/01/30 10:57:23;;;;;;;15.93;7.93;;;1.80;99.90;;;;;;5009508;28;20546;-88
2021/01/30 10:59:53;;;;;;;19.67;9.77;;;1.60;99.90;;;;;;4932735;29;20227;-88
2021/01/30 11:02:36;;;;;;;17.40;8.57;;;1.60;99.90;;;;;;4994447;28;20573;-89
2021/01/30 11:05:09;;;;;;;18.70;9.27;;;1.70;99.90;;;;;;5008883;28;20705;-89
2021/01/30 11:07:45;;;;;;;18.97;8.60;;;1.70;99.90;;;;;;5008755;28;20215;-90
2021/01/30 11:10:26;;;;;;;16.77;7.67;;;1.80;99.90;;;;;;5009439;28;20743;-90
2021/01/30 11:12:54;;;;;;;16.73;8.40;;;1.80;99.90;;;;;;5004386;28;20212;-90
2021/01/30 11:15:24;;;;;;;16.10;8.30;;;1.90;99.90;;;;;;5008260;28;20242;-92
2021/01/30 11:18:10;;;;;;;14.30;7.23;;;1.90;99.90;;;;;;5002044;28;20335;-90
2021/01/30 11:20:43;;;;;;;16.27;7.27;;;1.80;99.90;;;;;;5009179;28;20224;-89
2021/01/30 11:23:09;;;;;;;12.63;6.73;;;2.00;99.90;;;;;;5003509;28;20216;-90
2021/01/30 11:25:44;;;;;;;13.10;6.90;;;1.90;99.90;;;;;;5010523;28;20236;-88
2021/01/30 11:28:10;;;;;;;10.83;5.70;;;1.90;99.90;;;;;;5003958;28;20730;-89
2021/01/30 11:30:37;;;;;;;13.93;6.53;;;2.00;99.90;;;;;;5013864;28;20216;-89
2021/01/30 11:33:09;;;;;;;14.47;7.30;;;1.90;99.90;;;;;;5013452;28;20216;-89
2021/01/30 11:35:41;;;;;;;13.67;7.17;;;1.90;99.90;;;;;;5011316;28;20671;-90
2021/01/30 11:38:14;;;;;;;13.93;7.43;;;2.00;99.90;;;;;;5005242;28;20200;-87
2021/01/30 11:40:41;;;;;;;14.43;7.77;;;1.90;99.90;;;;;;5009938;28;20239;-90
2021/01/30 11:43:11;;;;;;;10.63;5.47;;;2.00;99.90;;;;;;5004831;28;20252;-85
2021/01/30 11:45:38;;;;;;;12.20;6.23;;;1.90;99.90;;;;;;5010643;28;20224;-88
2021/01/30 11:48:05;;;;;;;13.33;6.27;;;1.80;99.90;;;;;;5003401;28;20236;-89
2021/01/30 11:50:42;;;;;;;14.63;6.90;;;1.90;99.90;;;;;;5008837;28;20200;-87
2021/01/30 11:53:12;;;;;;;15.23;7.13;;;1.90;99.90;;;;;;5007940;28;20582;-87
2021/01/30 11:55:39;;;;;;;14.23;6.73;;;1.90;99.90;;;;;;5003820;28;20251;-87
2021/01/30 11:58:09;;;;;;;12.50;5.60;;;2.30;99.90;;;;;;5002489;28;20641;-89
2021/01/30 12:00:37;;;;;;;13.30;6.47;;;1.90;99.90;;;;;;5009274;28;20217;-87
2021/01/30 12:03:07;;;;;;;13.63;6.80;;;1.80;99.90;;;;;;5007739;28;20215;-88
2021/01/30 12:05:33;;;;;;;15.53;8.00;;;1.80;99.90;;;;;;5007885;28;20307;-87
2021/01/30 12:08:00;;;;;;;15.70;8.00;;;1.70;99.90;;;;;;5004505;28;20203;-90
2021/01/30 12:10:27;;;;;;;15.40;7.53;;;1.70;99.90;;;;;;5009612;28;20212;-90
2021/01/30 12:12:54;;;;;;;15.07;7.63;;;1.70;99.90;;;;;;4999960;28;20220;-88
2021/01/30 12:15:20;;;;;;;16.43;8.20;;;1.70;99.90;;;;;;5007876;28;20580;-87
2021/01/30 12:17:48;;;;;;;16.97;8.20;;;1.70;99.90;;;;;;5002306;28;20204;-86
2021/01/30 12:20:19;;;;;;;15.47;7.27;;;1.80;99.90;;;;;;5007799;28;20234;-88
2021/01/30 12:22:45;;;;;;;11.67;6.10;;;1.80;99.90;;;;;;5000773;28;20216;-87
2021/01/30 12:25:12;;;;;;;12.33;6.33;;;1.70;99.90;;;;;;5008649;28;20224;-89
2021/01/30 12:27:43;;;;;;;13.07;6.80;;;1.70;99.90;;;;;;5008072;28;20216;-89
2021/01/30 12:30:13;;;;;;;14.53;6.97;;;1.70;99.90;;;;;;5003538;28;20213;-90
2021/01/30 12:32:41;;;;;;;15.87;8.03;;;1.60;99.90;;;;;;5004870;28;20223;-88
2021/01/30 12:35:14;;;;;;;18.27;8.07;;;1.60;99.90;;;;;;5007559;28;20232;-88
2021/01/30 12:37:44;;;;;;;18.23;9.40;;;1.60;99.90;;;;;;5003698;28;20214;-87
2021/01/30 12:40:14;;;;;;;16.67;7.93;;;1.50;99.90;;;;;;5006596;28;20235;-89
2021/01/30 12:42:44;;;;;;;11.20;5.87;;;1.50;99.90;;;;;;5005986;28;20208;-86
2021/01/30 12:45:14;;;;;;;9.60;4.90;;;1.60;99.90;;;;;;5008193;28;20220;-90
2021/01/30 12:47:45;;;;;;;13.63;6.47;;;1.40;99.90;;;;;;5005175;28;20390;-86
2021/01/30 12:50:16;;;;;;;15.77;7.13;;;1.60;99.90;;;;;;5007102;28;20212;-87
2021/01/30 12:52:45;;;;;;;14.70;7.43;;;1.60;99.90;;;;;;5006226;28;20216;-86
2021/01/30 12:55:15;;;;;;;8.03;4.90;;;1.60;99.90;;;;;;5007396;28;20228;-88
2021/01/30 12:57:41;;;;;;;8.90;4.90;;;1.50;99.90;;;;;;5007617;28;20241;-88
2021/01/30 13:00:14;;;;;;;10.00;5.40;;;1.40;99.90;;;;;;5004451;28;20712;-88
2021/01/30 13:02:41;;;;;;;12.90;5.93;;;1.40;99.90;;;;;;4995723;28;20219;-90
2021/01/30 13:05:10;;;;;;;9.03;4.60;;;1.50;99.90;;;;;;5004984;28;20597;-88
2021/01/30 13:07:36;;;;;;;9.40;5.07;;;1.40;99.90;;;;;;5006834;28;20351;-88
2021/01/30 13:10:05;;;;;;;9.27;5.20;;;1.40;99.90;;;;;;5008546;28;20205;-87
2021/01/30 13:12:34;;;;;;;9.40;5.13;;;1.40;99.90;;;;;;5000229;28;20213;-89
2021/01/30 13:18:28;;;;;;;15.67;6.27;;;1.30;99.90;;;;;;4931324;28;20674;-89